createdAt,value
2023-03-29T00:00:08.643Z,-4.76
2023-03-29T00:02:39.044Z,-4.84
2023-03-29T00:05:06.832Z,-4.90
2023-03-29T00:07:54.208Z,-4.97
2023-03-29T00:10:24.212Z,-5.00
2023-03-29T00:12:52.675Z,-5.01
2023-03-29T00:15:21.949Z,-4.99
2023-03-29T00:17:48.762Z,-4.93
2023-03-29T00:20:16.714Z,-4.85
2023-03-29T00:22:44.442Z,-4.77
2023-03-29T00:25:12.810Z,-4.71
2023-03-29T00:27:40.392Z,-4.65
2023-03-29T00:30:10.198Z,-4.58
2023-03-29T00:32:37.885Z,-4.56
2023-03-29T00:35:06.531Z,-4.61
2023-03-29T00:37:33.396Z,-4.69
2023-03-29T00:40:00.637Z,-4.80
2023-03-29T00:42:27.515Z,-4.87
2023-03-29T00:45:04.461Z,-4.93
2023-03-29T00:47:46.681Z,-4.99
2023-03-29T00:50:22.460Z,-5.09
2023-03-29T00:52:56.736Z,-5.20
2023-03-29T00:55:27.847Z,-5.31
2023-03-29T00:57:57.333Z,-5.39
2023-03-29T01:00:31.976Z,-5.46
2023-03-29T01:03:01.675Z,-5.56
2023-03-29T01:05:34.382Z,-5.63
2023-03-29T01:08:06.783Z,-5.67
2023-03-29T01:10:41.589Z,-5.66
2023-03-29T01:13:13.053Z,-5.64
2023-03-29T01:15:44.216Z,-5.62
2023-03-29T01:18:11.847Z,-5.55
2023-03-29T01:20:56.961Z,-5.48
2023-03-29T01:23:52.874Z,-5.42
2023-03-29T01:26:36.239Z,-5.38
2023-03-29T01:29:12.691Z,-5.32
2023-03-29T01:31:53.542Z,-5.30
2023-03-29T01:34:36.708Z,-5.33
2023-03-29T01:37:17.300Z,-5.35
2023-03-29T01:39:44.238Z,-5.39
2023-03-29T01:42:31.121Z,-5.45
2023-03-29T01:45:11.658Z,-5.54
2023-03-29T01:47:48.431Z,-5.65
2023-03-29T01:50:24.145Z,-5.74
2023-03-29T01:52:59.815Z,-5.83
2023-03-29T01:55:35.291Z,-5.91
2023-03-29T01:58:05.656Z,-6.01
2023-03-29T02:00:34.968Z,-6.10
2023-03-29T02:03:07.032Z,-6.18
2023-03-29T02:05:35.108Z,-6.23
2023-03-29T02:08:05.403Z,-6.25
2023-03-29T02:10:34.124Z,-6.28
2023-03-29T02:13:01.500Z,-6.25
2023-03-29T02:15:28.283Z,-6.21
2023-03-29T02:17:57.225Z,-6.18
2023-03-29T02:20:27.150Z,-6.13
2023-03-29T02:23:09.412Z,-6.10
2023-03-29T02:25:37.979Z,-6.07
2023-03-29T02:28:07.009Z,-6.03
2023-03-29T02:30:44.549Z,-6.01
2023-03-29T02:33:18.498Z,-6.01
2023-03-29T02:35:53.446Z,-6.02
2023-03-29T02:38:25.615Z,-6.06
2023-03-29T02:40:53.127Z,-6.13
2023-03-29T02:43:22.656Z,-6.20
2023-03-29T02:45:52.101Z,-6.30
2023-03-29T02:48:23.544Z,-6.41
2023-03-29T02:50:54.735Z,-6.53
2023-03-29T02:53:28.255Z,-6.63
2023-03-29T02:55:55.610Z,-6.74
2023-03-29T02:58:26.677Z,-6.83
2023-03-29T03:00:53.959Z,-6.91
2023-03-29T03:03:20.919Z,-6.96
2023-03-29T03:05:49.438Z,-7.01
2023-03-29T03:08:16.436Z,-7.01
2023-03-29T03:10:43.286Z,-7.00
2023-03-29T03:13:11.403Z,-6.97
2023-03-29T03:15:41.198Z,-6.93
2023-03-29T03:18:09.593Z,-6.90
2023-03-29T03:20:36.553Z,-6.85
2023-03-29T03:23:03.674Z,-6.80
2023-03-29T03:25:31.795Z,-6.76
2023-03-29T03:27:59.162Z,-6.72
2023-03-29T03:30:26.540Z,-6.69
2023-03-29T03:32:56.703Z,-6.67
2023-03-29T03:35:39.308Z,-6.65
2023-03-29T03:38:07.555Z,-6.68
2023-03-29T03:40:34.917Z,-6.74
2023-03-29T03:43:01.762Z,-6.81
2023-03-29T03:45:29.089Z,-6.91
2023-03-29T03:48:02.097Z,-7.02
2023-03-29T03:50:55.072Z,-7.15
2023-03-29T03:53:23.752Z,-7.28
2023-03-29T03:56:09.259Z,-7.46
2023-03-29T03:58:45.816Z,-7.59
2023-03-29T04:01:13.389Z,-7.68
2023-03-29T04:03:44.639Z,-7.72
2023-03-29T04:06:14.292Z,-7.72
2023-03-29T04:08:56.836Z,-7.71
2023-03-29T04:11:33.765Z,-7.68
2023-03-29T04:14:00.653Z,-7.63
2023-03-29T04:16:39.781Z,-7.58
2023-03-29T04:19:23.126Z,-7.51
2023-03-29T04:21:51.394Z,-7.45
2023-03-29T04:24:18.666Z,-7.38
2023-03-29T04:26:57.185Z,-7.33
2023-03-29T04:29:24.713Z,-7.27
2023-03-29T04:31:59.195Z,-7.21
2023-03-29T04:34:41.077Z,-7.15
2023-03-29T04:37:10.613Z,-7.12
2023-03-29T04:39:38.053Z,-7.08
2023-03-29T04:42:05.985Z,-7.07
2023-03-29T04:44:34.200Z,-7.08
2023-03-29T04:47:02.989Z,-7.14
2023-03-29T04:49:30.047Z,-7.18
2023-03-29T04:52:00.947Z,-7.23
2023-03-29T04:54:29.421Z,-7.26
2023-03-29T04:57:05.752Z,-7.33
2023-03-29T04:59:38.742Z,-7.39
2023-03-29T05:02:14.691Z,-7.42
2023-03-29T05:04:43.156Z,-7.41
2023-03-29T05:07:15.384Z,-7.37
2023-03-29T05:09:42.750Z,-7.31
2023-03-29T05:12:10.325Z,-7.21
2023-03-29T05:14:48.836Z,-7.09
2023-03-29T05:17:16.049Z,-6.98
2023-03-29T05:19:43.553Z,-6.84
2023-03-29T05:22:10.561Z,-6.66
2023-03-29T05:24:37.828Z,-6.45
2023-03-29T05:27:11.842Z,-6.22
2023-03-29T05:29:39.205Z,-5.99
2023-03-29T05:32:19.790Z,-5.80
2023-03-29T05:34:46.794Z,-5.63
2023-03-29T05:37:13.639Z,-5.45
2023-03-29T05:39:49.852Z,-5.22
2023-03-29T05:42:22.552Z,-4.91
2023-03-29T05:44:54.679Z,-4.59
2023-03-29T05:47:21.662Z,-4.31
2023-03-29T05:49:48.421Z,-4.05
2023-03-29T05:52:20.852Z,-3.78
2023-03-29T05:54:47.739Z,-3.56
2023-03-29T05:57:15.266Z,-3.33
2023-03-29T05:59:42.471Z,-3.06
2023-03-29T06:02:11.748Z,-2.76
2023-03-29T06:04:43.487Z,-2.49
2023-03-29T06:07:25.734Z,-2.21
2023-03-29T06:10:09.715Z,-1.94
2023-03-29T06:12:38.151Z,-1.70
2023-03-29T06:15:06.558Z,-1.45
2023-03-29T06:17:39.674Z,-1.14
2023-03-29T06:20:11.916Z,-0.78
2023-03-29T06:22:41.992Z,-0.37
2023-03-29T06:25:11.222Z,0.05
2023-03-29T06:27:38.706Z,0.48
2023-03-29T06:30:06.311Z,0.87
2023-03-29T06:32:35.113Z,1.21
2023-03-29T06:35:09.964Z,1.56
2023-03-29T06:37:49.498Z,1.94
2023-03-29T06:40:23.059Z,2.31
2023-03-29T06:42:51.070Z,2.62
2023-03-29T06:45:36.466Z,3.06
2023-03-29T06:48:08.007Z,3.41
2023-03-29T06:50:36.012Z,3.65
2023-03-29T06:53:09.511Z,3.89
2023-03-29T06:55:36.447Z,4.16
2023-03-29T06:58:20.681Z,4.48
2023-03-29T07:00:47.667Z,4.69
2023-03-29T07:03:23.602Z,4.84
2023-03-29T07:05:53.072Z,5.13
2023-03-29T07:08:21.428Z,5.40
2023-03-29T07:10:54.277Z,5.49
2023-03-29T07:13:36.685Z,5.61
2023-03-29T07:16:05.093Z,5.73
2023-03-29T07:18:46.115Z,6.02
2023-03-29T07:21:21.246Z,6.41
2023-03-29T07:23:48.037Z,6.73
2023-03-29T07:26:28.616Z,7.11
2023-03-29T07:28:57.195Z,7.53
2023-03-29T07:31:24.227Z,7.80
2023-03-29T07:33:56.200Z,8.07
2023-03-29T07:36:25.402Z,8.21
2023-03-29T07:38:55.149Z,8.37
2023-03-29T07:41:23.655Z,8.52
2023-03-29T07:43:55.904Z,8.78
2023-03-29T07:46:25.261Z,9.10
2023-03-29T07:48:52.306Z,9.40
2023-03-29T07:51:20.156Z,9.72
2023-03-29T07:53:49.897Z,9.95
2023-03-29T07:56:32.428Z,10.14
2023-03-29T07:59:11.938Z,10.60
2023-03-29T08:01:41.214Z,10.96
2023-03-29T08:04:23.736Z,11.09
2023-03-29T08:07:06.488Z,11.13
2023-03-29T08:09:50.432Z,11.13
2023-03-29T08:12:17.636Z,11.32
2023-03-29T08:14:44.542Z,11.54
2023-03-29T08:17:24.793Z,11.59
2023-03-29T08:19:52.482Z,11.61
2023-03-29T08:22:23.143Z,11.67
2023-03-29T08:25:07.266Z,11.54
2023-03-29T08:27:39.909Z,11.54
2023-03-29T08:30:09.698Z,11.56
2023-03-29T08:32:38.486Z,11.83
2023-03-29T08:35:08.811Z,11.95
2023-03-29T08:37:40.795Z,11.98
2023-03-29T08:40:08.651Z,11.88
2023-03-29T08:43:11.140Z,11.84
2023-03-29T08:46:09.955Z,12.21
2023-03-29T08:48:44.223Z,12.45
2023-03-29T08:51:19.572Z,12.62
2023-03-29T08:53:52.748Z,12.48
2023-03-29T08:56:34.034Z,12.41
2023-03-29T08:59:01.498Z,12.43
2023-03-29T09:01:35.545Z,12.52
2023-03-29T09:04:09.175Z,12.54
2023-03-29T09:06:49.749Z,12.32
2023-03-29T09:09:22.867Z,12.27
2023-03-29T09:12:01.743Z,11.90
2023-03-29T09:14:46.400Z,11.57
2023-03-29T09:17:20.362Z,11.45
2023-03-29T09:19:48.397Z,11.46
2023-03-29T09:22:17.616Z,11.50
2023-03-29T09:25:15.394Z,11.55
2023-03-29T09:28:14.468Z,11.76
2023-03-29T09:31:03.976Z,11.84
2023-03-29T09:33:49.818Z,11.93
2023-03-29T09:36:42.157Z,11.86
2023-03-29T09:39:13.347Z,11.78
2023-03-29T09:41:48.154Z,11.64
2023-03-29T09:44:30.257Z,11.46
2023-03-29T09:47:19.367Z,11.16
2023-03-29T09:49:49.628Z,11.19
2023-03-29T09:52:18.248Z,11.05
2023-03-29T09:54:52.532Z,10.87
2023-03-29T09:57:35.348Z,10.72
2023-03-29T10:00:06.083Z,10.62
2023-03-29T10:02:41.010Z,10.29
2023-03-29T10:05:16.491Z,9.98
2023-03-29T10:07:49.019Z,9.86
2023-03-29T10:10:22.196Z,9.94
2023-03-29T10:12:51.876Z,10.04
2023-03-29T10:15:29.257Z,10.03
2023-03-29T10:18:04.477Z,10.04
2023-03-29T10:20:36.519Z,10.11
2023-03-29T10:23:06.931Z,9.98
2023-03-29T10:25:42.551Z,9.89
2023-03-29T10:28:21.246Z,9.88
2023-03-29T10:30:54.423Z,9.83
2023-03-29T10:33:24.541Z,9.68
2023-03-29T10:35:52.491Z,9.65
2023-03-29T10:38:23.087Z,9.61
2023-03-29T10:40:53.278Z,9.53
2023-03-29T10:43:20.256Z,9.44
2023-03-29T10:45:50.010Z,9.41
2023-03-29T10:48:18.170Z,9.34
2023-03-29T10:50:50.541Z,9.29
2023-03-29T10:53:33.709Z,9.10
2023-03-29T10:56:23.212Z,9.06
2023-03-29T10:58:58.689Z,9.04
2023-03-29T11:01:44.946Z,9.13
2023-03-29T11:04:20.967Z,9.22
2023-03-29T11:07:03.833Z,9.34
2023-03-29T11:09:50.016Z,9.62
2023-03-29T11:12:28.069Z,9.86
2023-03-29T11:15:09.720Z,9.89
2023-03-29T11:18:01.823Z,9.94
2023-03-29T11:20:44.181Z,10.02
2023-03-29T11:23:42.962Z,10.15
2023-03-29T11:26:36.857Z,10.10
2023-03-29T11:29:11.043Z,10.06
2023-03-29T11:31:39.298Z,10.06
2023-03-29T11:34:08.058Z,10.04
2023-03-29T11:36:41.470Z,10.09
2023-03-29T11:39:09.589Z,10.26
2023-03-29T11:41:39.908Z,10.44
2023-03-29T11:44:11.581Z,10.67
2023-03-29T11:46:50.345Z,10.87
2023-03-29T11:49:32.337Z,11.05
2023-03-29T11:52:10.558Z,11.11
2023-03-29T11:54:40.542Z,11.21
2023-03-29T11:57:23.754Z,11.38
2023-03-29T12:00:12.452Z,11.70
2023-03-29T12:02:55.527Z,11.96
2023-03-29T12:05:28.260Z,12.33
2023-03-29T12:08:03.735Z,12.75
2023-03-29T12:10:35.547Z,13.38
2023-03-29T12:13:08.241Z,14.25
2023-03-29T12:15:49.462Z,15.12
2023-03-29T12:18:36.903Z,15.77
2023-03-29T12:21:10.760Z,15.92
2023-03-29T12:23:38.613Z,16.09
2023-03-29T12:26:22.061Z,16.19
2023-03-29T12:29:20.129Z,16.63
2023-03-29T12:32:02.735Z,16.80
2023-03-29T12:34:53.449Z,16.65
2023-03-29T12:37:54.613Z,16.63
2023-03-29T12:40:46.066Z,16.86
2023-03-29T12:43:33.189Z,17.30
2023-03-29T12:46:21.026Z,17.37
2023-03-29T12:48:53.242Z,17.31
2023-03-29T12:51:24.081Z,17.23
2023-03-29T12:53:53.708Z,17.28
2023-03-29T12:56:34.927Z,17.17
2023-03-29T12:59:16.556Z,17.17
2023-03-29T13:01:59.023Z,17.22
2023-03-29T13:04:38.801Z,17.18
2023-03-29T13:07:07.249Z,16.85
2023-03-29T13:09:48.188Z,16.78
2023-03-29T13:12:22.467Z,16.55
2023-03-29T13:14:54.840Z,16.12
2023-03-29T13:17:37.342Z,15.64
2023-03-29T13:20:34.903Z,15.25
2023-03-29T13:23:18.211Z,14.62
2023-03-29T13:25:47.056Z,14.00
2023-03-29T13:28:35.784Z,13.57
2023-03-29T13:31:03.527Z,13.32
2023-03-29T13:33:52.756Z,13.12
2023-03-29T13:36:34.609Z,12.92
2023-03-29T13:39:05.574Z,12.88
2023-03-29T13:41:47.124Z,12.94
2023-03-29T13:44:23.803Z,12.92
2023-03-29T13:47:03.622Z,12.90
2023-03-29T13:49:34.020Z,12.87
2023-03-29T13:52:07.261Z,12.91
2023-03-29T13:54:42.095Z,13.00
2023-03-29T13:57:12.841Z,12.99
2023-03-29T13:59:55.115Z,13.03
2023-03-29T14:02:32.545Z,12.95
2023-03-29T14:05:02.319Z,12.77
2023-03-29T14:07:32.721Z,12.58
2023-03-29T14:10:01.290Z,12.45
2023-03-29T14:12:37.762Z,12.31
2023-03-29T14:15:07.028Z,12.12
2023-03-29T14:17:36.455Z,11.90
2023-03-29T14:20:09.160Z,11.76
2023-03-29T14:22:36.076Z,11.69
2023-03-29T14:25:12.001Z,11.83
2023-03-29T14:27:38.778Z,12.00
2023-03-29T14:30:23.254Z,12.01
2023-03-29T14:32:51.647Z,11.99
2023-03-29T14:35:19.342Z,11.98
2023-03-29T14:37:46.576Z,12.12
2023-03-29T14:40:20.072Z,12.34
2023-03-29T14:42:48.790Z,12.43
2023-03-29T14:45:18.307Z,12.49
2023-03-29T14:47:47.400Z,12.55
2023-03-29T14:50:31.032Z,12.66
2023-03-29T14:53:00.828Z,12.67
2023-03-29T14:55:28.063Z,12.59
2023-03-29T14:57:55.683Z,12.43
2023-03-29T15:00:30.223Z,12.26
2023-03-29T15:03:01.494Z,12.06
2023-03-29T15:05:34.016Z,11.86
2023-03-29T15:08:03.169Z,11.69
2023-03-29T15:10:38.825Z,11.57
2023-03-29T15:13:08.091Z,11.37
2023-03-29T15:15:38.559Z,11.20
2023-03-29T15:18:07.887Z,11.01
2023-03-29T15:20:38.354Z,10.81
2023-03-29T15:23:21.178Z,10.70
2023-03-29T15:25:53.966Z,10.57
2023-03-29T15:28:26.485Z,10.50
2023-03-29T15:31:07.333Z,10.40
2023-03-29T15:33:38.025Z,10.31
2023-03-29T15:36:07.308Z,10.19
2023-03-29T15:38:43.099Z,10.04
2023-03-29T15:41:13.734Z,9.93
2023-03-29T15:43:42.073Z,9.81
2023-03-29T15:46:12.320Z,9.71
2023-03-29T15:48:39.505Z,9.60
2023-03-29T15:51:07.157Z,9.51
2023-03-29T15:53:35.595Z,9.39
2023-03-29T15:56:07.521Z,9.28
2023-03-29T15:58:35.675Z,9.14
2023-03-29T16:01:34.768Z,9.03
2023-03-29T16:04:04.747Z,8.93
2023-03-29T16:06:32.354Z,8.86
2023-03-29T16:08:59.544Z,8.78
2023-03-29T16:11:28.467Z,8.72
2023-03-29T16:13:56.774Z,8.65
2023-03-29T16:16:24.248Z,8.58
2023-03-29T16:18:51.243Z,8.50
2023-03-29T16:21:19.997Z,8.43
2023-03-29T16:23:47.244Z,8.36
2023-03-29T16:26:16.376Z,8.27
2023-03-29T16:28:43.869Z,8.20
2023-03-29T16:31:13.019Z,8.10
2023-03-29T16:33:41.143Z,8.00
2023-03-29T16:36:08.978Z,7.88
2023-03-29T16:38:36.236Z,7.77
2023-03-29T16:41:03.036Z,7.69
2023-03-29T16:43:29.937Z,7.59
2023-03-29T16:45:57.235Z,7.49
2023-03-29T16:48:24.444Z,7.39
2023-03-29T16:50:51.344Z,7.30
2023-03-29T16:53:18.825Z,7.19
2023-03-29T16:55:46.471Z,7.08
2023-03-29T16:58:13.417Z,7.00
2023-03-29T17:00:40.966Z,6.89
2023-03-29T17:03:08.180Z,6.80
2023-03-29T17:05:41.383Z,6.71
2023-03-29T17:08:10.245Z,6.61
2023-03-29T17:10:40.873Z,6.50
2023-03-29T17:13:24.089Z,6.39
2023-03-29T17:15:52.446Z,6.22
2023-03-29T17:18:21.164Z,6.04
2023-03-29T17:20:50.703Z,5.82
2023-03-29T17:23:17.944Z,5.66
2023-03-29T17:25:44.875Z,5.50
2023-03-29T17:28:11.713Z,5.30
2023-03-29T17:30:39.003Z,5.10
2023-03-29T17:33:08.218Z,4.90
2023-03-29T17:35:35.270Z,4.71
2023-03-29T17:38:02.971Z,4.54
2023-03-29T17:40:29.807Z,4.40
2023-03-29T17:42:56.530Z,4.28
2023-03-29T17:45:23.367Z,4.19
2023-03-29T17:47:50.393Z,4.10
2023-03-29T17:50:17.606Z,3.99
2023-03-29T17:52:59.718Z,3.88
2023-03-29T17:55:27.467Z,3.76
2023-03-29T17:57:54.471Z,3.63
2023-03-29T18:00:21.595Z,3.47
2023-03-29T18:02:48.505Z,3.28
2023-03-29T18:05:15.553Z,3.13
2023-03-29T18:07:42.417Z,2.97
2023-03-29T18:10:09.648Z,2.88
2023-03-29T18:12:36.712Z,2.86
2023-03-29T18:15:03.775Z,2.85
2023-03-29T18:17:31.372Z,2.85
2023-03-29T18:20:13.662Z,2.83
2023-03-29T18:22:56.180Z,2.83
2023-03-29T18:25:24.144Z,2.81
2023-03-29T18:27:51.395Z,2.80
2023-03-29T18:30:18.522Z,2.76
2023-03-29T18:32:45.482Z,2.71
2023-03-29T18:35:12.292Z,2.64
2023-03-29T18:37:39.034Z,2.55
2023-03-29T18:40:08.403Z,2.43
2023-03-29T18:42:35.154Z,2.20
2023-03-29T18:45:02.667Z,2.06
2023-03-29T18:47:29.554Z,1.95
2023-03-29T18:49:56.831Z,1.83
2023-03-29T18:52:23.676Z,1.70
2023-03-29T18:54:50.528Z,1.58
2023-03-29T18:57:17.725Z,1.51
2023-03-29T18:59:44.475Z,1.45
2023-03-29T19:02:11.302Z,1.40
2023-03-29T19:04:38.045Z,1.40
2023-03-29T19:07:04.844Z,1.43
2023-03-29T19:09:31.744Z,1.41
2023-03-29T19:11:58.619Z,1.34
2023-03-29T19:14:25.511Z,1.27
2023-03-29T19:16:52.962Z,1.19
2023-03-29T19:19:22.556Z,1.13
2023-03-29T19:21:49.638Z,0.98
2023-03-29T19:24:16.978Z,0.83
2023-03-29T19:26:44.792Z,0.74
2023-03-29T19:29:11.949Z,0.69
2023-03-29T19:31:39.019Z,0.62
2023-03-29T19:34:07.050Z,0.59
2023-03-29T19:36:34.056Z,0.53
2023-03-29T19:39:01.384Z,0.50
2023-03-29T19:41:28.505Z,0.50
2023-03-29T19:43:55.501Z,0.51
2023-03-29T19:46:22.968Z,0.53
2023-03-29T19:48:51.794Z,0.55
2023-03-29T19:51:19.747Z,0.54
2023-03-29T19:53:47.326Z,0.52
2023-03-29T19:56:15.856Z,0.49
2023-03-29T19:58:42.663Z,0.46
2023-03-29T20:01:09.914Z,0.43
2023-03-29T20:03:36.808Z,0.39
2023-03-29T20:06:04.639Z,0.32
2023-03-29T20:08:31.498Z,0.27
2023-03-29T20:10:59.822Z,0.22
2023-03-29T20:13:37.574Z,0.19
2023-03-29T20:16:07.602Z,0.16
2023-03-29T20:18:34.599Z,0.15
2023-03-29T20:21:02.223Z,0.16
2023-03-29T20:23:30.003Z,0.19
2023-03-29T20:25:57.159Z,0.21
2023-03-29T20:28:24.724Z,0.20
2023-03-29T20:30:53.047Z,0.22
2023-03-29T20:33:21.289Z,0.30
2023-03-29T20:35:49.457Z,0.44
2023-03-29T20:38:17.315Z,0.59
2023-03-29T20:40:44.910Z,0.73
2023-03-29T20:43:13.556Z,0.83
2023-03-29T20:45:52.745Z,0.91
2023-03-29T20:48:23.304Z,0.99
2023-03-29T20:50:51.462Z,1.05
2023-03-29T20:53:20.516Z,1.11
2023-03-29T20:55:48.136Z,1.19
2023-03-29T20:58:15.935Z,1.25
2023-03-29T21:00:43.709Z,1.29
2023-03-29T21:03:11.239Z,1.34
2023-03-29T21:05:39.084Z,1.36
2023-03-29T21:08:06.229Z,1.38
2023-03-29T21:10:33.440Z,1.45
2023-03-29T21:13:02.713Z,1.53
2023-03-29T21:15:30.839Z,1.64
2023-03-29T21:17:58.355Z,1.77
2023-03-29T21:20:25.861Z,1.89
2023-03-29T21:22:52.621Z,2.00
2023-03-29T21:25:19.827Z,2.13
2023-03-29T21:27:46.574Z,2.26
2023-03-29T21:30:13.741Z,2.37
2023-03-29T21:32:41.149Z,2.44
2023-03-29T21:35:08.847Z,2.48
2023-03-29T21:37:36.252Z,2.49
2023-03-29T21:40:08.313Z,2.46
2023-03-29T21:42:35.418Z,2.43
2023-03-29T21:45:03.100Z,2.41
2023-03-29T21:47:30.208Z,2.39
2023-03-29T21:49:57.075Z,2.37
2023-03-29T21:52:23.881Z,2.38
2023-03-29T21:54:50.833Z,2.38
2023-03-29T21:57:17.786Z,2.35
2023-03-29T21:59:44.564Z,2.31
2023-03-29T22:02:11.750Z,2.30
2023-03-29T22:04:38.817Z,2.28
2023-03-29T22:07:06.721Z,2.27
2023-03-29T22:09:35.721Z,2.27
2023-03-29T22:12:03.959Z,2.27
2023-03-29T22:14:35.374Z,2.26
2023-03-29T22:17:06.176Z,2.26
2023-03-29T22:19:39.370Z,2.25
2023-03-29T22:22:07.380Z,2.26
2023-03-29T22:24:34.204Z,2.26
2023-03-29T22:27:00.953Z,2.28
2023-03-29T22:29:27.713Z,2.30
2023-03-29T22:31:54.579Z,2.33
2023-03-29T22:34:21.371Z,2.38
2023-03-29T22:36:48.266Z,2.46
2023-03-29T22:39:15.167Z,2.56
2023-03-29T22:41:42.295Z,2.67
2023-03-29T22:44:09.385Z,2.77
2023-03-29T22:46:36.744Z,2.86
2023-03-29T22:49:03.936Z,2.95
2023-03-29T22:51:30.751Z,3.03
2023-03-29T22:53:57.658Z,3.12
2023-03-29T22:56:24.895Z,3.20
2023-03-29T22:58:51.900Z,3.25
2023-03-29T23:01:18.745Z,3.30
2023-03-29T23:03:45.530Z,3.32
2023-03-29T23:06:12.731Z,3.35
2023-03-29T23:08:39.643Z,3.37
2023-03-29T23:11:07.526Z,3.40
2023-03-29T23:13:35.370Z,3.43
2023-03-29T23:16:03.926Z,3.46
2023-03-29T23:18:34.931Z,3.50
2023-03-29T23:21:02.728Z,3.55
2023-03-29T23:23:30.030Z,3.61
2023-03-29T23:25:57.310Z,3.67
2023-03-29T23:28:27.601Z,3.75
2023-03-29T23:30:55.555Z,3.82
2023-03-29T23:33:23.371Z,3.90
2023-03-29T23:35:50.494Z,3.97
2023-03-29T23:38:17.360Z,4.02
2023-03-29T23:40:44.190Z,4.04
2023-03-29T23:43:11.270Z,4.06
2023-03-29T23:45:38.073Z,4.05
2023-03-29T23:48:05.142Z,4.05
2023-03-29T23:50:31.963Z,4.04
2023-03-29T23:52:58.744Z,4.03
2023-03-29T23:55:25.471Z,4.01
2023-03-29T23:57:52.326Z,4.01
